Time;durP1;ratioP1;P1;durP2;ratioP2;P2;SDS_P1;SDS_P2;PMS_P1;PMS_P2;Temp;Humidity;BMP_temperature;BMP_pressure;BME280_temperature;BME280_humidity;BME280_pressure;Samples;Min_cycle;Max_cycle;Signal;HPM_P1;HPM_P2
2022/09/15 00:00:33;;;;;;;5.10;2.45;;;;;;;;;;5107421;27;20195;-66
2022/09/15 00:03:00;;;;;;;3.72;2.83;;;;;;;;;;5115107;27;20669;-66
2022/09/15 00:05:28;;;;;;;3.83;2.70;;;;;;;;;;5116539;27;20200;-66
2022/09/15 00:07:55;;;;;;;2.80;2.58;;;;;;;;;;5115360;27;20231;-65
2022/09/15 00:10:22;;;;;;;4.68;2.40;;;;;;;;;;5114232;27;20231;-66
2022/09/15 00:12:50;;;;;;;4.18;2.30;;;;;;;;;;5115063;27;20676;-66
2022/09/15 00:15:17;;;;;;;4.00;2.45;;;;;;;;;;5115107;27;20581;-66
2022/09/15 00:17:48;;;;;;;4.65;2.25;;;;;;;;;;5097353;27;20199;-64
2022/09/15 00:20:16;;;;;;;3.60;2.53;;;;;;;;;;5114831;27;20223;-66
2022/09/15 00:22:43;;;;;;;3.42;1.92;;;;;;;;;;5124981;27;20287;-66
2022/09/15 00:25:11;;;;;;;4.25;2.05;;;;;;;;;;5114177;27;20227;-66
2022/09/15 00:27:39;;;;;;;3.05;2.17;;;;;;;;;;5114458;27;20200;-65
2022/09/15 00:30:07;;;;;;;2.35;2.08;;;;;;;;;;5115096;27;20272;-66
2022/09/15 00:32:34;;;;;;;4.40;2.20;;;;;;;;;;5132724;27;20744;-66
2022/09/15 00:35:01;;;;;;;2.10;1.90;;;;;;;;;;5114638;27;20223;-66
2022/09/15 00:37:30;;;;;;;3.15;1.90;;;;;;;;;;5114253;27;20286;-64
2022/09/15 00:39:57;;;;;;;4.32;2.20;;;;;;;;;;5115097;27;20254;-65
2022/09/15 00:42:25;;;;;;;3.83;2.20;;;;;;;;;;5114691;27;20615;-66
2022/09/15 00:44:54;;;;;;;2.70;2.30;;;;;;;;;;5132858;27;20230;-66
2022/09/15 00:47:24;;;;;;;3.80;2.30;;;;;;;;;;5124579;27;20237;-63
2022/09/15 00:49:53;;;;;;;2.58;2.35;;;;;;;;;;5137641;27;20203;-64
2022/09/15 00:52:40;;;;;;;4.13;2.40;;;;;;;;;;5107699;27;20199;-66
2022/09/15 00:55:28;;;;;;;3.35;2.25;;;;;;;;;;5114814;27;20705;-65
2022/09/15 00:57:57;;;;;;;4.20;2.58;;;;;;;;;;5130901;27;20199;-66
2022/09/15 01:00:26;;;;;;;3.22;2.47;;;;;;;;;;5113649;27;20283;-65
2022/09/15 01:02:55;;;;;;;6.63;2.47;;;;;;;;;;5113965;27;20203;-66
2022/09/15 01:05:27;;;;;;;3.90;2.72;;;;;;;;;;5113504;27;20204;-66
2022/09/15 01:08:00;;;;;;;4.38;2.80;;;;;;;;;;5112699;27;20206;-66
2022/09/15 01:10:29;;;;;;;6.15;3.08;;;;;;;;;;5113610;27;20230;-66
2022/09/15 01:12:59;;;;;;;4.07;2.60;;;;;;;;;;5122004;27;20668;-66
2022/09/15 01:15:31;;;;;;;4.10;2.72;;;;;;;;;;5134124;27;20728;-66
2022/09/15 01:17:59;;;;;;;4.10;2.88;;;;;;;;;;5133849;27;20207;-65
2022/09/15 01:21:02;;;;;;;3.10;2.80;;;;;;;;;;5134188;27;20329;-64
2022/09/15 01:23:47;;;;;;;3.17;2.88;;;;;;;;;;5030862;28;20226;-66
2022/09/15 01:26:14;;;;;;;6.15;2.35;;;;;;;;;;5111198;27;20215;-66
2022/09/15 01:29:00;;;;;;;4.68;2.70;;;;;;;;;;5113125;27;20242;-66
2022/09/15 01:31:29;;;;;;;6.10;2.40;;;;;;;;;;5130538;27;20303;-66
2022/09/15 01:33:57;;;;;;;2.72;1.90;;;;;;;;;;5113243;27;20223;-66
2022/09/15 01:36:30;;;;;;;2.13;1.92;;;;;;;;;;5113485;28;20295;-66
2022/09/15 01:39:01;;;;;;;3.30;1.50;;;;;;;;;;5113142;27;20239;-66
2022/09/15 01:41:33;;;;;;;3.72;1.90;;;;;;;;;;5131434;27;20282;-66
2022/09/15 01:44:09;;;;;;;3.30;1.50;;;;;;;;;;5112960;27;20717;-66
2022/09/15 01:46:39;;;;;;;2.15;1.63;;;;;;;;;;5118763;27;20259;-66
2022/09/15 01:49:08;;;;;;;6.75;1.70;;;;;;;;;;5134188;27;20207;-66
2022/09/15 01:51:37;;;;;;;2.70;1.65;;;;;;;;;;5152499;27;20277;-66
2022/09/15 01:54:05;;;;;;;1.55;1.45;;;;;;;;;;5122021;27;20305;-66
2022/09/15 01:56:33;;;;;;;3.65;1.63;;;;;;;;;;5112732;28;20272;-66
2022/09/15 01:59:00;;;;;;;3.20;1.60;;;;;;;;;;5113093;28;20661;-66
2022/09/15 02:01:43;;;;;;;1.83;1.55;;;;;;;;;;5113449;28;20202;-66
2022/09/15 02:04:10;;;;;;;3.33;1.35;;;;;;;;;;5113436;28;20246;-65
2022/09/15 02:06:43;;;;;;;2.20;1.40;;;;;;;;;;5112863;28;20206;-66
2022/09/15 02:09:13;;;;;;;1.60;1.50;;;;;;;;;;5113049;28;20260;-66
2022/09/15 02:11:51;;;;;;;3.05;1.48;;;;;;;;;;5113215;28;20282;-66
2022/09/15 02:14:35;;;;;;;1.48;1.38;;;;;;;;;;5112816;28;20604;-66
2022/09/15 02:17:04;;;;;;;3.25;1.45;;;;;;;;;;5112880;28;20199;-67
2022/09/15 02:19:33;;;;;;;2.63;1.45;;;;;;;;;;5116087;27;20199;-65
2022/09/15 02:22:06;;;;;;;1.67;1.58;;;;;;;;;;5153192;27;20225;-65
2022/09/15 02:24:42;;;;;;;1.90;1.30;;;;;;;;;;5136374;27;20309;-65
2022/09/15 02:27:14;;;;;;;1.33;1.23;;;;;;;;;;5116254;27;20278;-65
2022/09/15 02:29:43;;;;;;;3.42;1.42;;;;;;;;;;5116755;27;20284;-66
2022/09/15 02:32:11;;;;;;;2.80;1.50;;;;;;;;;;5116658;27;20250;-64
2022/09/15 02:34:44;;;;;;;1.98;1.30;;;;;;;;;;5135478;27;20310;-63
2022/09/15 02:37:12;;;;;;;2.72;1.38;;;;;;;;;;5117329;27;20294;-65
2022/09/15 02:39:41;;;;;;;1.70;1.30;;;;;;;;;;5116965;27;20246;-67
2022/09/15 02:42:09;;;;;;;1.60;1.50;;;;;;;;;;5123292;27;20238;-66
2022/09/15 02:44:36;;;;;;;2.30;1.17;;;;;;;;;;5141296;27;20234;-69
2022/09/15 02:47:04;;;;;;;1.95;1.50;;;;;;;;;;5118394;27;20211;-66
2022/09/15 02:49:31;;;;;;;2.13;1.30;;;;;;;;;;5117005;27;20641;-66
2022/09/15 02:51:59;;;;;;;3.72;1.50;;;;;;;;;;5116637;27;20673;-65
2022/09/15 02:54:26;;;;;;;2.88;1.70;;;;;;;;;;5116287;27;20215;-67
2022/09/15 02:56:54;;;;;;;2.47;1.55;;;;;;;;;;5115519;27;20199;-65
2022/09/15 02:59:22;;;;;;;1.77;1.30;;;;;;;;;;5115985;27;20206;-66
2022/09/15 03:01:50;;;;;;;3.78;1.40;;;;;;;;;;5116639;27;20290;-65
2022/09/15 03:04:18;;;;;;;3.33;1.50;;;;;;;;;;5115671;27;20261;-65
2022/09/15 03:06:45;;;;;;;1.35;1.25;;;;;;;;;;5134209;27;20326;-65
2022/09/15 03:09:12;;;;;;;2.30;1.30;;;;;;;;;;5116225;27;20299;-65
2022/09/15 03:11:40;;;;;;;1.30;1.20;;;;;;;;;;5121949;27;20218;-65
2022/09/15 03:14:07;;;;;;;2.35;1.27;;;;;;;;;;5136546;27;20227;-66
2022/09/15 03:16:34;;;;;;;1.48;1.38;;;;;;;;;;5136228;27;20687;-66
2022/09/15 03:19:03;;;;;;;1.35;1.08;;;;;;;;;;5136664;27;20207;-65
2022/09/15 03:21:30;;;;;;;2.28;1.20;;;;;;;;;;5136601;27;20230;-65
2022/09/15 03:23:58;;;;;;;2.05;1.27;;;;;;;;;;5136131;27;20297;-66
2022/09/15 03:26:25;;;;;;;2.58;1.40;;;;;;;;;;5118745;27;20298;-66
2022/09/15 03:28:52;;;;;;;3.08;1.58;;;;;;;;;;5115455;27;20203;-66
2022/09/15 03:31:20;;;;;;;3.60;1.42;;;;;;;;;;5115080;27;20227;-66
2022/09/15 03:33:48;;;;;;;4.28;1.65;;;;;;;;;;5115758;27;20226;-66
2022/09/15 03:36:15;;;;;;;1.60;1.50;;;;;;;;;;5115227;27;20263;-67
2022/09/15 03:38:43;;;;;;;4.43;1.50;;;;;;;;;;5115348;27;20337;-66
2022/09/15 03:41:11;;;;;;;2.83;1.50;;;;;;;;;;5115387;27;20688;-66
2022/09/15 03:43:39;;;;;;;1.80;1.70;;;;;;;;;;5115317;27;20319;-64
2022/09/15 03:46:07;;;;;;;1.65;1.50;;;;;;;;;;5124979;27;20561;-66
2022/09/15 03:48:35;;;;;;;2.92;1.40;;;;;;;;;;5136307;27;20215;-66
2022/09/15 03:51:06;;;;;;;2.97;1.75;;;;;;;;;;5135449;27;20298;-64
2022/09/15 03:53:34;;;;;;;2.97;1.80;;;;;;;;;;5135962;27;20258;-64
2022/09/15 03:56:11;;;;;;;1.60;1.50;;;;;;;;;;5132528;27;20246;-65
2022/09/15 03:58:39;;;;;;;1.77;1.67;;;;;;;;;;5106905;27;20289;-67
2022/09/15 04:01:06;;;;;;;1.98;1.70;;;;;;;;;;5113021;27;20294;-66
2022/09/15 04:03:34;;;;;;;2.05;1.50;;;;;;;;;;5116574;27;20302;-67
2022/09/15 04:06:09;;;;;;;2.30;1.50;;;;;;;;;;5111230;27;20237;-66
2022/09/15 04:08:36;;;;;;;1.75;1.58;;;;;;;;;;5114760;27;20199;-66
2022/09/15 04:11:04;;;;;;;3.22;1.60;;;;;;;;;;5114585;27;20294;-66
2022/09/15 04:13:32;;;;;;;2.78;1.60;;;;;;;;;;5114329;27;20605;-65
2022/09/15 04:16:03;;;;;;;4.47;1.77;;;;;;;;;;5114296;27;20708;-66
2022/09/15 04:18:32;;;;;;;2.75;1.50;;;;;;;;;;5114637;27;20200;-65
2022/09/15 04:20:59;;;;;;;2.67;1.70;;;;;;;;;;5115005;27;20685;-65
2022/09/15 04:23:27;;;;;;;2.90;1.52;;;;;;;;;;5114542;27;20306;-66
2022/09/15 04:25:58;;;;;;;3.38;1.50;;;;;;;;;;5113840;27;20199;-66
2022/09/15 04:28:26;;;;;;;3.38;1.70;;;;;;;;;;5114367;27;20283;-65
2022/09/15 04:31:01;;;;;;;1.42;1.23;;;;;;;;;;5132634;27;20231;-65
2022/09/15 04:33:29;;;;;;;3.40;1.80;;;;;;;;;;5114348;27;20223;-65
2022/09/15 04:36:00;;;;;;;4.22;1.38;;;;;;;;;;5114009;27;20310;-65
2022/09/15 04:38:28;;;;;;;2.50;1.50;;;;;;;;;;5093762;28;20257;-65
2022/09/15 04:40:56;;;;;;;1.83;1.50;;;;;;;;;;5093426;28;20734;-66
2022/09/15 04:43:23;;;;;;;2.25;1.52;;;;;;;;;;5092883;28;20307;-66
2022/09/15 04:45:51;;;;;;;1.42;1.17;;;;;;;;;;5092854;28;20227;-65
2022/09/15 04:48:18;;;;;;;2.28;1.23;;;;;;;;;;5096992;27;20290;-65
2022/09/15 04:50:45;;;;;;;2.20;1.35;;;;;;;;;;5113392;27;20752;-65
2022/09/15 04:53:13;;;;;;;1.63;1.30;;;;;;;;;;5116205;27;20313;-65
2022/09/15 04:55:41;;;;;;;2.85;1.50;;;;;;;;;;5122516;27;20484;-65
2022/09/15 04:58:09;;;;;;;2.03;1.60;;;;;;;;;;5110020;27;20295;-65
2022/09/15 05:00:41;;;;;;;1.70;1.45;;;;;;;;;;5113529;27;20196;-65
2022/09/15 05:03:09;;;;;;;2.22;1.20;;;;;;;;;;5113550;27;20214;-65
2022/09/15 05:05:37;;;;;;;1.77;1.30;;;;;;;;;;5130956;27;20287;-64
2022/09/15 05:08:04;;;;;;;1.67;1.50;;;;;;;;;;5114055;27;20239;-65
2022/09/15 05:10:32;;;;;;;1.83;1.60;;;;;;;;;;5113938;27;20233;-65
2022/09/15 05:12:59;;;;;;;4.93;1.83;;;;;;;;;;5132036;27;20207;-65
2022/09/15 05:15:27;;;;;;;4.00;1.45;;;;;;;;;;5113622;27;20215;-65
2022/09/15 05:17:54;;;;;;;2.00;1.50;;;;;;;;;;5113682;27;20582;-65
2022/09/15 05:20:21;;;;;;;1.80;1.42;;;;;;;;;;5113517;27;20411;-65
2022/09/15 05:22:48;;;;;;;1.50;1.40;;;;;;;;;;5113410;27;20354;-65
2022/09/15 05:25:16;;;;;;;3.45;1.50;;;;;;;;;;5113204;27;20385;-65
2022/09/15 05:27:43;;;;;;;1.90;1.27;;;;;;;;;;5112891;27;20201;-65
2022/09/15 05:30:10;;;;;;;2.20;1.52;;;;;;;;;;5112902;27;20657;-65
2022/09/15 05:32:58;;;;;;;1.80;1.27;;;;;;;;;;5116034;27;20203;-65
2022/09/15 05:35:25;;;;;;;2.33;1.42;;;;;;;;;;5113227;27;20210;-65
2022/09/15 05:37:52;;;;;;;1.92;1.40;;;;;;;;;;5113237;27;20298;-65
2022/09/15 05:40:21;;;;;;;1.80;1.20;;;;;;;;;;5113316;27;20692;-65
2022/09/15 05:42:48;;;;;;;1.65;1.30;;;;;;;;;;5112280;27;20248;-66
2022/09/15 05:45:15;;;;;;;2.03;1.27;;;;;;;;;;5124316;27;20286;-65
2022/09/15 05:47:43;;;;;;;1.60;1.50;;;;;;;;;;5133196;27;20221;-65
2022/09/15 05:50:10;;;;;;;1.85;1.02;;;;;;;;;;5133538;27;20400;-65
2022/09/15 05:52:38;;;;;;;1.08;0.98;;;;;;;;;;5133372;27;20712;-65
2022/09/15 05:55:05;;;;;;;1.75;1.27;;;;;;;;;;5151658;27;20309;-65
2022/09/15 05:57:33;;;;;;;0.90;0.90;;;;;;;;;;5117107;27;20223;-65
2022/09/15 06:00:00;;;;;;;1.00;0.90;;;;;;;;;;5127721;28;20302;-65
2022/09/15 06:02:27;;;;;;;1.58;1.10;;;;;;;;;;5131721;27;20253;-66
2022/09/15 06:04:54;;;;;;;1.20;1.10;;;;;;;;;;5117588;28;20215;-65
2022/09/15 06:07:22;;;;;;;1.33;0.90;;;;;;;;;;5135154;28;20221;-66
2022/09/15 06:09:49;;;;;;;1.27;1.25;;;;;;;;;;5117477;28;20309;-66
2022/09/15 06:12:17;;;;;;;1.17;0.85;;;;;;;;;;5113157;28;20766;-66
2022/09/15 06:14:49;;;;;;;1.30;1.20;;;;;;;;;;5112005;28;20302;-66
2022/09/15 06:17:17;;;;;;;1.48;1.10;;;;;;;;;;5110054;28;20246;-66
2022/09/15 06:19:44;;;;;;;1.00;1.00;;;;;;;;;;5113720;28;20298;-65
2022/09/15 06:22:12;;;;;;;1.10;1.10;;;;;;;;;;5112562;28;20218;-66
2022/09/15 06:24:39;;;;;;;2.55;1.05;;;;;;;;;;5112548;28;20428;-66
2022/09/15 06:27:06;;;;;;;2.65;1.20;;;;;;;;;;5111682;28;20203;-66
2022/09/15 06:29:35;;;;;;;1.38;1.20;;;;;;;;;;5104434;28;20231;-66
2022/09/15 06:32:03;;;;;;;1.90;1.38;;;;;;;;;;5095711;28;20776;-66
2022/09/15 06:34:32;;;;;;;1.63;1.50;;;;;;;;;;5112395;28;20660;-64
2022/09/15 06:36:59;;;;;;;2.53;1.48;;;;;;;;;;5112760;28;20341;-65
2022/09/15 06:39:27;;;;;;;3.78;1.30;;;;;;;;;;5112551;28;20200;-66
2022/09/15 06:41:54;;;;;;;1.50;1.33;;;;;;;;;;5112686;28;20260;-66
2022/09/15 06:44:32;;;;;;;1.63;1.27;;;;;;;;;;5114173;28;20231;-66
2022/09/15 06:46:59;;;;;;;1.30;1.30;;;;;;;;;;5112267;28;20266;-65
2022/09/15 06:49:26;;;;;;;2.13;1.50;;;;;;;;;;5112693;28;20238;-66
2022/09/15 06:51:55;;;;;;;1.02;1.02;;;;;;;;;;5112041;27;20199;-66
2022/09/15 06:54:22;;;;;;;2.20;1.50;;;;;;;;;;5110112;28;20797;-67
2022/09/15 06:56:50;;;;;;;1.55;1.45;;;;;;;;;;5091515;28;20230;-65
2022/09/15 06:59:17;;;;;;;2.78;1.50;;;;;;;;;;5110947;28;20634;-65
2022/09/15 07:01:44;;;;;;;1.40;1.30;;;;;;;;;;5111971;28;20199;-68
2022/09/15 07:04:12;;;;;;;1.55;1.45;;;;;;;;;;5111806;28;20226;-66
2022/09/15 07:06:39;;;;;;;1.30;1.20;;;;;;;;;;5114803;27;20211;-65
2022/09/15 07:09:07;;;;;;;1.55;1.45;;;;;;;;;;5116287;27;20555;-66
2022/09/15 07:11:34;;;;;;;2.28;1.50;;;;;;;;;;5113570;27;20207;-66
2022/09/15 07:14:02;;;;;;;1.35;1.30;;;;;;;;;;5111254;27;20796;-66
2022/09/15 07:16:29;;;;;;;1.85;1.25;;;;;;;;;;5115443;27;20215;-68
2022/09/15 07:19:00;;;;;;;2.33;1.40;;;;;;;;;;5115528;27;20206;-66
2022/09/15 07:21:27;;;;;;;1.77;1.27;;;;;;;;;;5115934;27;20200;-63
2022/09/15 07:23:56;;;;;;;1.90;1.20;;;;;;;;;;5115985;27;20255;-64
2022/09/15 07:26:25;;;;;;;1.23;1.10;;;;;;;;;;5137943;27;20398;-66
2022/09/15 07:28:59;;;;;;;1.25;1.25;;;;;;;;;;5130144;27;20214;-65
2022/09/15 07:31:28;;;;;;;1.52;1.40;;;;;;;;;;5115280;27;20202;-65
2022/09/15 07:33:56;;;;;;;1.33;1.23;;;;;;;;;;5115888;27;20233;-67
2022/09/15 07:36:23;;;;;;;1.55;1.10;;;;;;;;;;5115494;27;20236;-66
2022/09/15 07:38:51;;;;;;;1.95;0.80;;;;;;;;;;5115260;27;20297;-66
2022/09/15 07:41:19;;;;;;;1.00;1.00;;;;;;;;;;5113265;27;20649;-65
2022/09/15 07:43:51;;;;;;;0.90;0.90;;;;;;;;;;5117042;27;20294;-66
2022/09/15 07:46:18;;;;;;;2.22;0.90;;;;;;;;;;5115270;27;20215;-67
2022/09/15 07:48:46;;;;;;;1.10;1.00;;;;;;;;;;5115474;27;20725;-65
2022/09/15 07:51:14;;;;;;;0.98;0.98;;;;;;;;;;5114902;27;20229;-65
2022/09/15 07:53:42;;;;;;;1.13;0.93;;;;;;;;;;5115124;27;20230;-65
2022/09/15 07:56:10;;;;;;;0.90;0.70;;;;;;;;;;5113790;27;20222;-65
2022/09/15 07:58:37;;;;;;;1.20;0.80;;;;;;;;;;5114617;27;20504;-64
2022/09/15 08:01:05;;;;;;;0.70;0.70;;;;;;;;;;5116440;27;20200;-65
2022/09/15 08:03:33;;;;;;;0.77;0.75;;;;;;;;;;5114569;27;20272;-66
2022/09/15 08:06:01;;;;;;;1.38;0.70;;;;;;;;;;5113593;27;20290;-65
2022/09/15 08:08:28;;;;;;;1.63;0.80;;;;;;;;;;5114986;27;20231;-66
2022/09/15 08:10:56;;;;;;;0.88;0.70;;;;;;;;;;5114439;27;20518;-66
2022/09/15 08:13:23;;;;;;;0.85;0.75;;;;;;;;;;5114089;27;20218;-66
2022/09/15 08:15:51;;;;;;;0.82;0.80;;;;;;;;;;5131059;27;20199;-65
2022/09/15 08:18:18;;;;;;;0.70;0.70;;;;;;;;;;5123761;27;20199;-67
2022/09/15 08:20:46;;;;;;;0.80;0.80;;;;;;;;;;5108149;27;20569;-66
2022/09/15 08:23:13;;;;;;;1.02;0.80;;;;;;;;;;5114376;27;20227;-66
2022/09/15 08:25:40;;;;;;;0.82;0.80;;;;;;;;;;5113823;27;20264;-65
2022/09/15 08:28:08;;;;;;;1.00;0.90;;;;;;;;;;5113931;27;20203;-65
2022/09/15 08:30:35;;;;;;;1.02;0.43;;;;;;;;;;5113932;27;20251;-69
2022/09/15 08:33:02;;;;;;;1.30;0.95;;;;;;;;;;5139278;27;20195;-68
2022/09/15 08:35:31;;;;;;;0.88;0.88;;;;;;;;;;5132286;27;20303;-66
2022/09/15 08:37:58;;;;;;;0.80;0.80;;;;;;;;;;5126139;27;20219;-65
2022/09/15 08:40:30;;;;;;;1.00;0.80;;;;;;;;;;5112851;27;20692;-66
2022/09/15 08:42:59;;;;;;;0.63;0.60;;;;;;;;;;5132608;27;20193;-65
2022/09/15 08:45:28;;;;;;;0.68;0.68;;;;;;;;;;5114561;27;20283;-66
2022/09/15 08:47:58;;;;;;;0.80;0.80;;;;;;;;;;5113544;27;20215;-66
2022/09/15 08:50:26;;;;;;;1.58;0.80;;;;;;;;;;5114407;27;20295;-65
2022/09/15 08:52:57;;;;;;;0.80;0.80;;;;;;;;;;5130984;27;20207;-67
2022/09/15 08:55:33;;;;;;;1.55;0.80;;;;;;;;;;5113985;27;20207;-66
2022/09/15 08:58:00;;;;;;;0.70;0.70;;;;;;;;;;5113523;27;20280;-66
2022/09/15 09:00:28;;;;;;;1.08;1.00;;;;;;;;;;5113422;27;20204;-66
2022/09/15 09:03:09;;;;;;;0.93;0.70;;;;;;;;;;5113127;27;20287;-66
2022/09/15 09:05:45;;;;;;;1.17;0.77;;;;;;;;;;5110136;28;20243;-65
2022/09/15 09:08:31;;;;;;;0.90;0.90;;;;;;;;;;5098853;27;20221;-66
2022/09/15 09:11:22;;;;;;;0.80;0.80;;;;;;;;;;5113257;27;20206;-66
2022/09/15 09:14:10;;;;;;;0.75;0.75;;;;;;;;;;5113448;27;20223;-65
2022/09/15 09:17:02;;;;;;;0.98;0.98;;;;;;;;;;5122034;27;20261;-64
2022/09/15 09:19:48;;;;;;;1.00;1.00;;;;;;;;;;5113201;27;20733;-67
2022/09/15 09:22:17;;;;;;;0.90;0.90;;;;;;;;;;5110645;27;20258;-67
2022/09/15 09:24:46;;;;;;;0.73;0.73;;;;;;;;;;5112805;27;20305;-66
2022/09/15 09:27:17;;;;;;;0.70;0.70;;;;;;;;;;5112987;27;20645;-66
2022/09/15 09:29:48;;;;;;;1.20;0.82;;;;;;;;;;5104474;27;20282;-66
2022/09/15 09:32:24;;;;;;;0.93;0.80;;;;;;;;;;5112530;27;20200;-66
2022/09/15 09:35:00;;;;;;;0.75;0.75;;;;;;;;;;5111498;27;20226;-65
2022/09/15 09:37:28;;;;;;;0.90;0.90;;;;;;;;;;5112151;27;20314;-65
2022/09/15 09:39:55;;;;;;;1.48;0.63;;;;;;;;;;5112830;27;20202;-66
2022/09/15 09:42:28;;;;;;;0.90;0.90;;;;;;;;;;5114795;27;20295;-66
2022/09/15 09:44:56;;;;;;;0.88;0.88;;;;;;;;;;5112844;27;20223;-66
2022/09/15 09:47:30;;;;;;;1.20;1.10;;;;;;;;;;5112600;28;20298;-66
2022/09/15 09:49:58;;;;;;;2.33;1.13;;;;;;;;;;5112940;27;20688;-65
2022/09/15 09:52:32;;;;;;;0.95;0.90;;;;;;;;;;5113184;27;20280;-65
2022/09/15 09:55:15;;;;;;;1.02;0.98;;;;;;;;;;5112802;28;20277;-65
2022/09/15 09:57:42;;;;;;;1.42;0.90;;;;;;;;;;5112174;28;20306;-65
2022/09/15 10:00:28;;;;;;;0.95;0.95;;;;;;;;;;5132033;27;20367;-65
2022/09/15 10:02:55;;;;;;;1.00;1.00;;;;;;;;;;5112905;28;20199;-65
2022/09/15 10:05:23;;;;;;;2.15;1.17;;;;;;;;;;5111935;28;20637;-65
2022/09/15 10:07:51;;;;;;;1.20;1.10;;;;;;;;;;5131157;28;20336;-65
2022/09/15 10:10:31;;;;;;;1.23;0.93;;;;;;;;;;5112345;28;20256;-65
2022/09/15 10:13:01;;;;;;;1.27;1.00;;;;;;;;;;5108166;28;20564;-66
2022/09/15 10:15:33;;;;;;;0.93;0.93;;;;;;;;;;5131035;28;20330;-65
2022/09/15 10:18:00;;;;;;;1.20;1.10;;;;;;;;;;5119324;28;20262;-65
2022/09/15 10:20:31;;;;;;;0.93;0.93;;;;;;;;;;5112935;28;20195;-65
2022/09/15 10:23:22;;;;;;;1.58;1.25;;;;;;;;;;5113255;28;20192;-65
2022/09/15 10:25:49;;;;;;;1.35;1.27;;;;;;;;;;5099298;28;20203;-65
2022/09/15 10:28:26;;;;;;;1.20;1.20;;;;;;;;;;5131323;28;20203;-66
2022/09/15 10:30:58;;;;;;;2.00;1.40;;;;;;;;;;5112129;27;20203;-66
2022/09/15 10:33:27;;;;;;;3.65;1.45;;;;;;;;;;5113118;27;20309;-65
2022/09/15 10:35:59;;;;;;;1.55;1.33;;;;;;;;;;5112599;28;20312;-66
2022/09/15 10:38:32;;;;;;;1.83;1.67;;;;;;;;;;5112793;28;20228;-65
2022/09/15 10:41:10;;;;;;;2.47;1.40;;;;;;;;;;5116514;27;20282;-65
2022/09/15 10:43:47;;;;;;;2.30;1.52;;;;;;;;;;5113173;28;20220;-65
2022/09/15 10:46:26;;;;;;;2.15;1.73;;;;;;;;;;5107894;27;20251;-65
2022/09/15 10:49:01;;;;;;;1.40;1.30;;;;;;;;;;5116729;27;20203;-66
2022/09/15 10:51:34;;;;;;;1.77;1.65;;;;;;;;;;5116763;27;20309;-66
2022/09/15 10:54:24;;;;;;;3.15;1.90;;;;;;;;;;5137348;27;20262;-66
2022/09/15 10:57:11;;;;;;;1.73;1.60;;;;;;;;;;5125134;27;20250;-65
2022/09/15 10:59:44;;;;;;;1.70;1.60;;;;;;;;;;5115762;27;20202;-66
2022/09/15 11:02:15;;;;;;;1.50;1.40;;;;;;;;;;5116159;27;20261;-66
2022/09/15 11:04:57;;;;;;;3.38;1.48;;;;;;;;;;5115594;27;20310;-66
2022/09/15 11:07:32;;;;;;;2.88;1.70;;;;;;;;;;5117055;27;20395;-66
2022/09/15 11:10:08;;;;;;;1.45;1.40;;;;;;;;;;5115885;27;20218;-66
2022/09/15 11:12:45;;;;;;;1.75;1.42;;;;;;;;;;5115885;27;20218;-65
2022/09/15 11:15:24;;;;;;;1.60;1.50;;;;;;;;;;5131768;27;20788;-65
2022/09/15 11:18:04;;;;;;;1.48;1.35;;;;;;;;;;5132787;27;20688;-66
2022/09/15 11:20:38;;;;;;;1.52;1.42;;;;;;;;;;5126656;27;20286;-65
2022/09/15 11:23:11;;;;;;;2.38;1.25;;;;;;;;;;5133692;27;20199;-66
2022/09/15 11:25:41;;;;;;;1.52;1.42;;;;;;;;;;5130595;27;20290;-66
2022/09/15 11:28:18;;;;;;;1.98;1.20;;;;;;;;;;5125215;27;20208;-66
2022/09/15 11:30:52;;;;;;;1.67;1.33;;;;;;;;;;5115676;27;20199;-65
2022/09/15 11:33:26;;;;;;;1.95;1.40;;;;;;;;;;5116425;27;20330;-65
2022/09/15 11:36:00;;;;;;;2.17;1.60;;;;;;;;;;5115920;27;20748;-66
2022/09/15 11:38:27;;;;;;;2.25;1.60;;;;;;;;;;5115915;27;20214;-65
2022/09/15 11:41:14;;;;;;;3.42;1.77;;;;;;;;;;5115796;27;20210;-65
2022/09/15 11:43:45;;;;;;;2.33;1.63;;;;;;;;;;5115174;27;20219;-66
2022/09/15 11:46:20;;;;;;;3.88;1.70;;;;;;;;;;5115513;27;20207;-66
2022/09/15 11:48:53;;;;;;;3.00;2.13;;;;;;;;;;5115256;27;20217;-66
2022/09/15 11:51:22;;;;;;;3.47;1.90;;;;;;;;;;5114342;27;20213;-66
2022/09/15 11:53:54;;;;;;;3.63;1.77;;;;;;;;;;5114927;27;20223;-65
2022/09/15 11:56:24;;;;;;;1.70;1.60;;;;;;;;;;5114298;27;20214;-65
2022/09/15 11:59:12;;;;;;;2.00;1.90;;;;;;;;;;5116929;27;20231;-66
2022/09/15 12:01:56;;;;;;;3.88;1.92;;;;;;;;;;5086218;27;20313;-65
2022/09/15 12:04:34;;;;;;;1.80;1.70;;;;;;;;;;5113966;27;20238;-65
2022/09/15 12:07:01;;;;;;;1.50;1.40;;;;;;;;;;5115225;27;20198;-66
2022/09/15 12:09:29;;;;;;;1.88;1.60;;;;;;;;;;5114599;27;20665;-65
2022/09/15 12:11:58;;;;;;;1.50;1.40;;;;;;;;;;5114589;27;20200;-65
2022/09/15 12:14:35;;;;;;;1.52;1.42;;;;;;;;;;5114995;27;20272;-66
2022/09/15 12:17:10;;;;;;;1.40;1.30;;;;;;;;;;5132902;27;20297;-65
2022/09/15 12:19:43;;;;;;;1.42;1.33;;;;;;;;;;5135491;27;20186;-66
2022/09/15 12:22:36;;;;;;;1.48;1.38;;;;;;;;;;5135212;27;20199;-65
2022/09/15 12:25:18;;;;;;;1.52;1.42;;;;;;;;;;5096633;27;20218;-65
2022/09/15 12:28:05;;;;;;;1.15;1.10;;;;;;;;;;5128572;27;20248;-65
2022/09/15 12:30:40;;;;;;;1.40;1.20;;;;;;;;;;5114325;27;20282;-65
2022/09/15 12:33:26;;;;;;;2.08;1.30;;;;;;;;;;5114747;27;20246;-65
2022/09/15 12:35:53;;;;;;;1.25;1.20;;;;;;;;;;5111988;27;20256;-66
2022/09/15 12:38:22;;;;;;;1.38;1.30;;;;;;;;;;5130225;27;20219;-67
2022/09/15 12:40:57;;;;;;;2.05;1.20;;;;;;;;;;5114008;27;20310;-66
2022/09/15 12:43:31;;;;;;;1.17;1.17;;;;;;;;;;5113929;27;20261;-66
2022/09/15 12:45:59;;;;;;;1.50;1.40;;;;;;;;;;5113747;27;20683;-66
2022/09/15 12:48:30;;;;;;;2.05;1.60;;;;;;;;;;5114465;27;20264;-66
2022/09/15 12:51:05;;;;;;;2.05;1.20;;;;;;;;;;5114737;27;20200;-66
2022/09/15 12:53:36;;;;;;;1.58;1.35;;;;;;;;;;5114037;27;20223;-66
2022/09/15 12:56:07;;;;;;;1.30;1.20;;;;;;;;;;5114253;27;20255;-66
2022/09/15 12:58:44;;;;;;;1.40;1.30;;;;;;;;;;5112909;27;20298;-63
2022/09/15 13:01:18;;;;;;;1.45;1.20;;;;;;;;;;5113865;27;20289;-63
2022/09/15 13:03:47;;;;;;;3.63;1.50;;;;;;;;;;5113239;27;20226;-65
2022/09/15 13:06:15;;;;;;;3.33;1.67;;;;;;;;;;5113981;27;20594;-66
2022/09/15 13:08:45;;;;;;;1.33;1.10;;;;;;;;;;5113411;27;20210;-66
2022/09/15 13:11:18;;;;;;;3.63;1.55;;;;;;;;;;5132333;27;20273;-66
2022/09/15 13:13:54;;;;;;;4.05;1.65;;;;;;;;;;5112819;27;20302;-66
2022/09/15 13:16:26;;;;;;;5.10;1.75;;;;;;;;;;5113727;27;20298;-67
2022/09/15 13:19:02;;;;;;;1.35;1.20;;;;;;;;;;5113847;27;20223;-67
2022/09/15 13:21:30;;;;;;;2.03;1.92;;;;;;;;;;5155254;27;20183;-65
2022/09/15 13:23:58;;;;;;;0.93;0.40;;;;;;;;;;5123785;27;20255;-66
2022/09/15 13:26:26;;;;;;;0.80;0.80;;;;;;;;;;5106090;27;20287;-64
2022/09/15 13:28:56;;;;;;;0.40;0.40;;;;;;;;;;5113387;27;20250;-66
2022/09/15 13:31:33;;;;;;;0.52;0.40;;;;;;;;;;5111921;27;20203;-66
2022/09/15 13:34:20;;;;;;;1.35;0.40;;;;;;;;;;5113060;27;20739;-64
2022/09/15 13:37:22;;;;;;;0.40;0.40;;;;;;;;;;5112395;27;20194;-67
2022/09/15 13:40:21;;;;;;;1.95;1.00;;;;;;;;;;5112566;27;20195;-64
2022/09/15 13:43:14;;;;;;;2.00;1.10;;;;;;;;;;5113135;27;20245;-65
2022/09/15 13:45:50;;;;;;;166.73;7.30;;;;;;;;;;5126961;27;20223;-65
2022/09/15 13:48:17;;;;;;;140.43;6.97;;;;;;;;;;5110779;27;20215;-66
2022/09/15 13:50:56;;;;;;;285.90;11.98;;;;;;;;;;5112946;27;20206;-66
2022/09/15 13:53:24;;;;;;;52.80;5.80;;;;;;;;;;5112946;27;20230;-65
2022/09/15 13:55:56;;;;;;;74.63;6.97;;;;;;;;;;5112631;27;20320;-66
2022/09/15 13:58:24;;;;;;;81.32;7.10;;;;;;;;;;5112538;27;20803;-66
2022/09/15 14:01:13;;;;;;;3.80;3.50;;;;;;;;;;5112906;28;20196;-67
2022/09/15 14:03:40;;;;;;;3.38;3.13;;;;;;;;;;5112678;28;20222;-66
2022/09/15 14:06:16;;;;;;;5.28;4.88;;;;;;;;;;5112573;28;20196;-66
2022/09/15 14:08:45;;;;;;;185.10;12.15;;;;;;;;;;5112539;28;20282;-64
2022/09/15 14:11:16;;;;;;;109.78;10.57;;;;;;;;;;5112316;28;20685;-65
2022/09/15 14:13:46;;;;;;;140.15;12.68;;;;;;;;;;5113142;27;20233;-66
2022/09/15 14:16:22;;;;;;;385.10;18.45;;;;;;;;;;5124203;27;20294;-65
2022/09/15 14:18:50;;;;;;;283.00;17.10;;;;;;;;;;5116823;27;20225;-65
2022/09/15 14:21:22;;;;;;;179.05;14.68;;;;;;;;;;5116825;27;20756;-65
2022/09/15 14:23:50;;;;;;;37.55;13.00;;;;;;;;;;5116262;27;20246;-66
2022/09/15 14:26:19;;;;;;;116.40;14.68;;;;;;;;;;5116466;27;20195;-64
2022/09/15 14:28:48;;;;;;;13.00;11.80;;;;;;;;;;5116829;27;20575;-66
2022/09/15 14:31:16;;;;;;;12.90;10.63;;;;;;;;;;5116399;27;20583;-66
2022/09/15 14:33:45;;;;;;;20.20;11.83;;;;;;;;;;5116545;27;20732;-64
2022/09/15 14:36:22;;;;;;;14.97;11.03;;;;;;;;;;5116434;27;20213;-66
2022/09/15 14:39:08;;;;;;;11.47;9.40;;;;;;;;;;5116201;27;20237;-64
2022/09/15 14:41:35;;;;;;;10.03;9.13;;;;;;;;;;5108531;27;20279;-66
2022/09/15 14:44:21;;;;;;;9.60;8.43;;;;;;;;;;5134555;27;20788;-66
2022/09/15 14:47:15;;;;;;;14.25;8.77;;;;;;;;;;5118672;27;20588;-67
2022/09/15 14:49:42;;;;;;;10.80;8.53;;;;;;;;;;5117071;27;20294;-66
2022/09/15 14:52:28;;;;;;;11.30;9.30;;;;;;;;;;5116024;27;20286;-67
2022/09/15 14:54:58;;;;;;;9.37;8.47;;;;;;;;;;5116059;27;20254;-66
2022/09/15 14:57:26;;;;;;;13.33;9.33;;;;;;;;;;5115891;27;20720;-66
2022/09/15 14:59:59;;;;;;;11.75;9.43;;;;;;;;;;5115736;27;20318;-66
2022/09/15 15:02:35;;;;;;;10.25;8.75;;;;;;;;;;5116464;27;20757;-66
2022/09/15 15:05:10;;;;;;;9.07;8.07;;;;;;;;;;5131823;27;20394;-65